createdAt,value
2018-07-19T00:01:05.849Z,58.06
2018-07-19T00:04:08.028Z,58.54
2018-07-19T00:07:10.023Z,57.97
2018-07-19T00:10:12.112Z,57.04
2018-07-19T00:13:14.300Z,57.62
2018-07-19T00:16:16.340Z,57.00
2018-07-19T00:19:18.336Z,57.92
2018-07-19T00:22:21.484Z,58.10
2018-07-19T00:25:23.634Z,56.73
2018-07-19T00:28:25.735Z,58.21
2018-07-19T00:31:27.836Z,57.72
2018-07-19T00:34:29.990Z,59.00
2018-07-19T00:37:32.087Z,59.04
2018-07-19T00:40:34.152Z,57.83
2018-07-19T00:43:36.557Z,59.76
2018-07-19T00:46:38.708Z,58.46
2018-07-19T00:49:40.767Z,60.04
2018-07-19T00:52:42.727Z,59.74
2018-07-19T00:55:44.894Z,60.08
2018-07-19T00:58:46.956Z,60.36
2018-07-19T01:01:49.134Z,61.14
2018-07-19T01:04:51.244Z,59.23
2018-07-19T01:07:54.698Z,60.23
2018-07-19T01:10:56.878Z,61.86
2018-07-19T01:13:58.929Z,61.60
2018-07-19T01:17:01.024Z,60.64
2018-07-19T01:20:03.334Z,62.41
2018-07-19T01:23:05.350Z,62.15
2018-07-19T01:26:07.427Z,62.80
2018-07-19T01:29:10.721Z,61.87
2018-07-19T01:32:12.796Z,62.20
2018-07-19T01:35:14.861Z,60.26
2018-07-19T01:38:17.025Z,61.12
2018-07-19T01:41:30.499Z,61.07
2018-07-19T01:44:32.544Z,60.43
2018-07-19T01:47:34.740Z,61.28
2018-07-19T01:50:36.892Z,62.15
2018-07-19T01:53:38.934Z,63.33
2018-07-19T01:56:42.002Z,61.62
2018-07-19T01:59:44.774Z,63.78
2018-07-19T02:02:46.897Z,61.85
2018-07-19T02:05:48.962Z,63.82
2018-07-19T02:08:52.057Z,63.33
2018-07-19T02:11:55.258Z,63.53
2018-07-19T02:14:57.326Z,63.82
2018-07-19T02:18:01.454Z,63.28
2018-07-19T02:21:03.513Z,64.80
2018-07-19T02:24:05.595Z,64.65
2018-07-19T02:27:07.580Z,64.07
2018-07-19T02:30:09.750Z,64.74
2018-07-19T02:33:11.788Z,64.65
2018-07-19T02:36:13.845Z,65.47
2018-07-19T02:39:15.945Z,65.95
2018-07-19T02:42:18.020Z,64.76
2018-07-19T02:45:20.069Z,65.02
2018-07-19T02:48:22.236Z,66.43
2018-07-19T02:51:24.843Z,66.65
2018-07-19T02:54:26.903Z,66.72
2018-07-19T02:57:29.320Z,66.73
2018-07-19T03:00:31.454Z,66.83
2018-07-19T03:03:33.671Z,67.08
2018-07-19T03:06:35.868Z,67.07
2018-07-19T03:09:37.956Z,67.37
2018-07-19T03:12:41.064Z,67.32
2018-07-19T03:15:43.175Z,67.69
2018-07-19T03:18:45.520Z,66.62
2018-07-19T03:21:47.672Z,68.37
2018-07-19T03:24:49.724Z,67.69
2018-07-19T03:27:51.883Z,68.29
2018-07-19T03:30:55.394Z,68.56
2018-07-19T03:33:57.364Z,68.02
2018-07-19T03:36:59.472Z,67.11
2018-07-19T03:40:01.648Z,68.22
2018-07-19T03:43:03.654Z,66.36
2018-07-19T03:46:05.752Z,67.66
2018-07-19T03:49:07.845Z,67.41
2018-07-19T03:52:09.885Z,67.09
2018-07-19T03:55:15.557Z,68.14
2018-07-19T03:58:17.600Z,67.83
2018-07-19T04:01:19.692Z,67.37
2018-07-19T04:04:21.656Z,66.27
2018-07-19T04:07:24.966Z,67.32
2018-07-19T04:10:27.026Z,67.19
2018-07-19T04:13:29.158Z,66.77
2018-07-19T04:16:31.256Z,66.77
2018-07-19T04:19:33.250Z,66.90
2018-07-19T04:22:36.482Z,67.13
2018-07-19T04:25:38.620Z,67.54
2018-07-19T04:28:40.795Z,67.29
2018-07-19T04:31:42.897Z,66.89
2018-07-19T04:34:46.066Z,66.65
2018-07-19T04:37:48.212Z,66.27
2018-07-19T04:40:51.497Z,65.89
2018-07-19T04:43:54.711Z,66.47
2018-07-19T04:46:58.756Z,66.56
2018-07-19T04:50:00.777Z,66.56
2018-07-19T04:53:02.847Z,66.18
2018-07-19T04:56:04.999Z,65.53
2018-07-19T04:59:07.094Z,64.98
2018-07-19T05:02:09.192Z,65.07
2018-07-19T05:05:11.344Z,63.68
2018-07-19T05:08:13.430Z,63.56
2018-07-19T05:11:15.540Z,63.24
2018-07-19T05:14:17.654Z,62.40
2018-07-19T05:17:19.687Z,61.08
2018-07-19T05:20:21.820Z,59.73
2018-07-19T05:23:24.937Z,59.15
2018-07-19T05:26:27.152Z,59.60
2018-07-19T05:29:29.172Z,58.83
2018-07-19T05:32:31.343Z,58.79
2018-07-19T05:35:33.464Z,59.06
2018-07-19T05:38:35.434Z,58.09
2018-07-19T05:41:37.763Z,58.13
2018-07-19T05:44:39.893Z,58.13
2018-07-19T05:47:41.844Z,58.19
2018-07-19T05:50:43.967Z,57.31
2018-07-19T05:53:46.131Z,56.50
2018-07-19T05:56:48.465Z,56.70
2018-07-19T05:59:50.544Z,55.67
2018-07-19T06:02:52.911Z,55.52
2018-07-19T06:05:55.702Z,56.05
2018-07-19T06:08:57.892Z,55.33
2018-07-19T06:12:00.035Z,55.06
2018-07-19T06:15:05.126Z,55.22
2018-07-19T06:18:07.116Z,54.96
2018-07-19T06:21:09.198Z,56.16
2018-07-19T06:24:11.379Z,55.77
2018-07-19T06:27:13.756Z,55.57
2018-07-19T06:30:15.949Z,55.44
2018-07-19T06:33:18.005Z,54.18
2018-07-19T06:36:20.176Z,54.16
2018-07-19T06:39:22.225Z,54.32
2018-07-19T06:42:24.390Z,53.33
2018-07-19T06:45:26.512Z,52.88
2018-07-19T06:48:28.541Z,53.40
2018-07-19T06:51:30.719Z,53.28
2018-07-19T06:54:32.782Z,52.20
2018-07-19T06:57:36.223Z,52.54
2018-07-19T07:00:38.392Z,51.87
2018-07-19T07:03:40.552Z,50.79
2018-07-19T07:06:42.552Z,49.55
2018-07-19T07:09:44.697Z,50.09
2018-07-19T07:12:46.752Z,48.78
2018-07-19T07:15:48.827Z,48.96
2018-07-19T07:18:51.087Z,48.98
2018-07-19T07:21:53.223Z,48.78
2018-07-19T07:24:56.395Z,46.90
2018-07-19T07:27:58.426Z,46.37
2018-07-19T07:31:00.612Z,47.15
2018-07-19T07:34:02.799Z,46.58
2018-07-19T07:37:05.103Z,45.59
2018-07-19T07:40:07.395Z,45.52
2018-07-19T07:43:10.181Z,45.32
2018-07-19T07:46:12.272Z,45.28
2018-07-19T07:49:14.254Z,45.73
2018-07-19T07:52:16.307Z,44.84
2018-07-19T07:55:18.403Z,45.38
2018-07-19T07:58:20.375Z,44.35
2018-07-19T08:01:22.428Z,45.36
2018-07-19T08:04:24.621Z,44.85
2018-07-19T08:07:27.807Z,43.13
2018-07-19T08:10:30.034Z,44.26
2018-07-19T08:13:32.115Z,43.80
2018-07-19T08:16:34.198Z,42.96
2018-07-19T08:19:36.229Z,43.19
2018-07-19T08:22:38.219Z,41.66
2018-07-19T08:25:40.373Z,42.18
2018-07-19T08:28:42.452Z,41.41
2018-07-19T08:31:44.431Z,41.32
2018-07-19T08:34:47.710Z,41.08
2018-07-19T08:37:49.837Z,40.38
2018-07-19T08:40:53.948Z,39.85
2018-07-19T08:43:56.433Z,40.56
2018-07-19T08:46:58.473Z,39.56
2018-07-19T08:50:00.560Z,39.51
2018-07-19T08:53:02.738Z,39.78
2018-07-19T08:56:04.788Z,38.86
2018-07-19T08:59:06.857Z,38.73
2018-07-19T09:02:08.967Z,38.31
2018-07-19T09:05:11.056Z,37.34
2018-07-19T09:08:13.172Z,37.35
2018-07-19T09:11:15.727Z,37.40
2018-07-19T09:14:17.895Z,36.43
2018-07-19T09:17:20.005Z,36.99
2018-07-19T09:20:22.087Z,36.55
2018-07-19T09:23:24.120Z,37.32
2018-07-19T09:26:27.068Z,36.93
2018-07-19T09:29:28.998Z,36.29
2018-07-19T09:32:32.149Z,35.55
2018-07-19T09:35:34.259Z,35.65
2018-07-19T09:38:36.377Z,35.54
2018-07-19T09:41:38.543Z,35.19
2018-07-19T09:44:40.655Z,34.71
2018-07-19T09:47:44.853Z,35.34
2018-07-19T09:50:47.100Z,33.65
2018-07-19T09:53:49.239Z,32.91
2018-07-19T09:56:51.488Z,33.87
2018-07-19T09:59:54.575Z,35.26
2018-07-19T10:02:57.575Z,35.32
2018-07-19T10:05:59.994Z,33.23
2018-07-19T10:09:02.051Z,34.07
2018-07-19T10:12:04.125Z,32.35
2018-07-19T10:15:06.197Z,33.88
2018-07-19T10:18:08.353Z,34.04
2018-07-19T10:21:11.617Z,33.68
2018-07-19T10:24:16.563Z,33.76
2018-07-19T10:27:18.664Z,33.15
2018-07-19T10:30:21.823Z,32.54
2018-07-19T10:33:24.171Z,31.16
2018-07-19T10:36:26.895Z,32.41
2018-07-19T10:39:29.128Z,31.77
2018-07-19T10:42:31.272Z,31.03
2018-07-19T10:45:33.352Z,31.38
2018-07-19T10:48:36.574Z,31.16
2018-07-19T10:51:38.793Z,30.80
2018-07-19T10:54:40.845Z,31.31
2018-07-19T10:57:42.950Z,29.36
2018-07-19T11:00:45.057Z,29.36
2018-07-19T11:03:47.157Z,29.84
2018-07-19T11:06:49.265Z,28.87
2018-07-19T11:09:51.371Z,28.92
2018-07-19T11:12:53.548Z,27.81
2018-07-19T11:15:56.343Z,27.79
2018-07-19T11:18:58.334Z,28.19
2018-07-19T11:22:00.346Z,28.42
2018-07-19T11:25:02.446Z,30.40
2018-07-19T11:28:04.583Z,29.44
2018-07-19T11:31:06.936Z,29.98
2018-07-19T11:34:09.180Z,29.19
2018-07-19T11:37:11.344Z,29.84
2018-07-19T11:40:13.667Z,29.75
2018-07-19T11:43:16.159Z,29.15
2018-07-19T11:46:18.422Z,29.96
2018-07-19T11:49:20.692Z,29.08
2018-07-19T11:52:22.851Z,29.26
2018-07-19T11:55:25.975Z,29.87
2018-07-19T11:58:28.185Z,29.08
2018-07-19T12:01:30.439Z,27.81
2018-07-19T12:04:32.488Z,28.97
2018-07-19T12:07:34.499Z,28.68
2018-07-19T12:10:36.488Z,28.00
2018-07-19T12:13:38.566Z,27.50
2018-07-19T12:16:40.666Z,28.09
2018-07-19T12:19:42.785Z,28.04
2018-07-19T12:22:44.809Z,27.16
2018-07-19T12:25:46.959Z,28.15
2018-07-19T12:28:48.931Z,27.80
2018-07-19T12:31:51.037Z,26.99
2018-07-19T12:34:53.143Z,27.36
2018-07-19T12:37:55.174Z,27.90
2018-07-19T12:40:58.439Z,28.02
2018-07-19T12:44:08.975Z,27.28
2018-07-19T12:47:11.083Z,26.51
2018-07-19T12:50:13.496Z,26.98
2018-07-19T12:53:15.607Z,27.07
2018-07-19T12:56:17.691Z,26.67
2018-07-19T12:59:19.751Z,26.14
2018-07-19T13:02:21.932Z,25.79
2018-07-19T13:05:25.085Z,26.13
2018-07-19T13:08:28.086Z,25.24
2018-07-19T13:11:30.244Z,25.94
2018-07-19T13:14:32.545Z,25.67
2018-07-19T13:17:34.748Z,25.82
2018-07-19T13:20:36.794Z,25.94
2018-07-19T13:23:38.921Z,25.74
2018-07-19T13:26:40.973Z,26.07
2018-07-19T13:29:43.023Z,25.53
2018-07-19T13:32:45.082Z,26.44
2018-07-19T13:35:47.135Z,25.95
2018-07-19T13:38:49.103Z,25.49
2018-07-19T13:41:51.160Z,26.06
2018-07-19T13:44:53.298Z,25.72
2018-07-19T13:47:55.626Z,25.77
2018-07-19T13:50:59.131Z,26.29
2018-07-19T13:54:15.271Z,26.51
2018-07-19T13:57:17.438Z,25.77
2018-07-19T14:00:19.669Z,26.13
2018-07-19T14:03:22.319Z,25.97
2018-07-19T14:06:24.938Z,25.58
2018-07-19T14:09:26.955Z,25.50
2018-07-19T14:12:30.090Z,25.46
2018-07-19T14:15:32.270Z,25.06
2018-07-19T14:18:34.518Z,24.91
2018-07-19T14:21:36.653Z,24.35
2018-07-19T14:24:39.008Z,25.25
2018-07-19T14:27:40.974Z,25.18
2018-07-19T14:30:43.036Z,24.91
2018-07-19T14:33:47.132Z,24.89
2018-07-19T14:36:49.199Z,24.23
2018-07-19T14:39:51.435Z,24.11
2018-07-19T14:42:54.308Z,24.90
2018-07-19T14:45:56.536Z,24.73
2018-07-19T14:48:59.641Z,25.29
2018-07-19T14:52:01.828Z,25.93
2018-07-19T14:55:04.651Z,26.55
2018-07-19T14:58:07.283Z,25.25
2018-07-19T15:01:09.417Z,24.95
2018-07-19T15:04:11.472Z,26.37
2018-07-19T15:07:13.701Z,24.77
2018-07-19T15:10:15.828Z,24.77
2018-07-19T15:13:17.963Z,25.25
2018-07-19T15:16:20.006Z,24.97
2018-07-19T15:19:22.081Z,25.05
2018-07-19T15:22:24.160Z,24.64
2018-07-19T15:25:26.124Z,24.82
2018-07-19T15:28:29.347Z,24.51
2018-07-19T15:31:31.589Z,24.76
2018-07-19T15:34:33.768Z,24.58
2018-07-19T15:37:35.862Z,24.22
2018-07-19T15:40:37.877Z,24.42
2018-07-19T15:43:40.027Z,25.03
2018-07-19T15:46:42.212Z,24.54
2018-07-19T15:49:44.286Z,24.68
2018-07-19T15:52:46.254Z,25.26
2018-07-19T15:55:48.348Z,24.50
2018-07-19T15:58:50.461Z,25.27
2018-07-19T16:01:52.518Z,24.79
2018-07-19T16:04:54.707Z,24.97
2018-07-19T16:07:56.756Z,25.18
2018-07-19T16:11:00.260Z,24.71
2018-07-19T16:14:02.561Z,24.88
2018-07-19T16:17:05.016Z,25.32
2018-07-19T16:20:07.073Z,25.07
2018-07-19T16:23:09.292Z,24.14
2018-07-19T16:26:11.431Z,24.82
2018-07-19T16:29:13.391Z,23.57
2018-07-19T16:32:17.526Z,24.86
2018-07-19T16:35:19.627Z,24.29
2018-07-19T16:38:21.700Z,23.82
2018-07-19T16:41:25.920Z,23.94
2018-07-19T16:44:28.927Z,24.54
2018-07-19T16:47:31.021Z,24.92
2018-07-19T16:50:33.293Z,25.05
2018-07-19T16:53:35.710Z,25.22
2018-07-19T16:56:37.895Z,25.78
2018-07-19T16:59:40.058Z,25.41
2018-07-19T17:02:42.494Z,25.23
2018-07-19T17:05:45.888Z,25.60
2018-07-19T17:08:48.337Z,25.82
2018-07-19T17:11:51.106Z,25.62
2018-07-19T17:14:53.279Z,25.54
2018-07-19T17:17:56.739Z,25.99
2018-07-19T17:21:00.174Z,26.06
2018-07-19T17:24:03.252Z,25.40
2018-07-19T17:27:05.405Z,25.52
2018-07-19T17:30:08.669Z,25.57
2018-07-19T17:33:10.753Z,25.93
2018-07-19T17:36:12.951Z,26.31
2018-07-19T17:39:15.163Z,26.55
2018-07-19T17:42:17.484Z,25.87
2018-07-19T17:45:19.727Z,26.45
2018-07-19T17:48:21.821Z,26.72
2018-07-19T17:51:23.911Z,26.76
2018-07-19T17:54:26.101Z,26.85
2018-07-19T17:57:28.263Z,26.53
2018-07-19T18:00:30.295Z,27.19
2018-07-19T18:03:32.947Z,26.81
2018-07-19T18:06:35.222Z,27.30
2018-07-19T18:09:37.329Z,27.35
2018-07-19T18:12:39.593Z,27.10
2018-07-19T18:15:41.627Z,27.29
2018-07-19T18:18:43.627Z,27.64
2018-07-19T18:21:45.732Z,27.73
2018-07-19T18:24:47.782Z,27.71
2018-07-19T18:27:49.964Z,27.91
2018-07-19T18:30:52.027Z,27.77
2018-07-19T18:33:54.072Z,28.02
2018-07-19T18:36:56.380Z,28.02
2018-07-19T18:39:58.528Z,28.03
2018-07-19T18:43:00.650Z,28.53
2018-07-19T18:46:04.012Z,28.41
2018-07-19T18:49:06.196Z,28.49
2018-07-19T18:52:08.791Z,28.50
2018-07-19T18:55:10.916Z,28.60
2018-07-19T18:58:13.055Z,28.76
2018-07-19T19:01:15.229Z,28.75
2018-07-19T19:04:17.304Z,29.02
2018-07-19T19:07:19.616Z,28.97
2018-07-19T19:10:21.599Z,28.99
2018-07-19T19:13:23.907Z,29.09
2018-07-19T19:16:26.144Z,29.15
2018-07-19T19:19:28.386Z,29.50
2018-07-19T19:22:30.663Z,29.65
2018-07-19T19:25:32.812Z,29.63
2018-07-19T19:28:35.032Z,29.84
2018-07-19T19:31:37.251Z,30.10
2018-07-19T19:34:39.432Z,30.23
2018-07-19T19:37:42.545Z,30.34
2018-07-19T19:40:44.717Z,30.46
2018-07-19T19:43:46.805Z,30.71
2018-07-19T19:46:48.945Z,30.79
2018-07-19T19:49:50.956Z,31.25
2018-07-19T19:52:53.127Z,31.14
2018-07-19T19:55:56.306Z,31.57
2018-07-19T19:58:58.368Z,31.67
2018-07-19T20:02:00.420Z,31.77
2018-07-19T20:05:02.932Z,32.23
2018-07-19T20:08:05.097Z,32.50
2018-07-19T20:11:07.195Z,32.98
2018-07-19T20:14:09.377Z,33.54
2018-07-19T20:17:11.531Z,34.31
2018-07-19T20:20:13.524Z,34.93
2018-07-19T20:23:15.846Z,35.08
2018-07-19T20:26:18.076Z,36.15
2018-07-19T20:29:20.180Z,36.54
2018-07-19T20:32:22.511Z,36.87
2018-07-19T20:35:24.755Z,37.37
2018-07-19T20:38:26.920Z,37.94
2018-07-19T20:41:29.243Z,37.97
2018-07-19T20:44:31.391Z,38.15
2018-07-19T20:47:33.751Z,38.20
2018-07-19T20:50:35.802Z,39.29
2018-07-19T20:53:38.067Z,39.64
2018-07-19T20:56:40.138Z,39.94
2018-07-19T20:59:42.164Z,39.82
2018-07-19T21:02:44.285Z,39.79
2018-07-19T21:05:46.431Z,39.97
2018-07-19T21:08:48.809Z,40.13
2018-07-19T21:11:50.877Z,40.38
2018-07-19T21:14:52.937Z,41.25
2018-07-19T21:17:56.036Z,40.63
2018-07-19T21:20:58.132Z,41.40
2018-07-19T21:24:00.275Z,41.88
2018-07-19T21:27:02.378Z,41.22
2018-07-19T21:30:05.781Z,41.53
2018-07-19T21:33:07.799Z,42.53
2018-07-19T21:36:09.925Z,42.88
2018-07-19T21:39:12.223Z,42.82
2018-07-19T21:42:14.336Z,43.73
2018-07-19T21:45:16.543Z,43.48
2018-07-19T21:48:18.800Z,44.03
2018-07-19T21:51:21.151Z,43.75
2018-07-19T21:54:23.310Z,44.01
2018-07-19T21:57:25.425Z,45.09
2018-07-19T22:00:29.756Z,45.50
2018-07-19T22:03:32.213Z,45.64
2018-07-19T22:06:36.255Z,45.57
2018-07-19T22:09:38.428Z,45.63
2018-07-19T22:12:40.557Z,45.91
2018-07-19T22:15:42.618Z,46.00
2018-07-19T22:18:48.032Z,46.24
2018-07-19T22:21:49.992Z,46.54
2018-07-19T22:24:52.118Z,46.86
2018-07-19T22:27:54.291Z,47.24
2018-07-19T22:30:56.355Z,47.52
2018-07-19T22:33:58.525Z,47.15
2018-07-19T22:37:00.579Z,47.83
2018-07-19T22:40:03.528Z,48.31
2018-07-19T22:43:06.544Z,48.57
2018-07-19T22:46:08.780Z,47.95
2018-07-19T22:49:10.816Z,47.93
2018-07-19T22:52:12.860Z,48.53
2018-07-19T22:55:14.991Z,47.23
2018-07-19T22:58:17.002Z,47.51
2018-07-19T23:01:19.124Z,49.06
2018-07-19T23:04:21.156Z,49.25
2018-07-19T23:07:23.237Z,48.41
2018-07-19T23:20:42.896Z,48.20
2018-07-19T23:23:44.942Z,49.14
2018-07-19T23:33:38.355Z,50.08
2018-07-19T23:36:45.047Z,50.53
2018-07-19T23:39:51.319Z,50.54
2018-07-19T23:42:56.858Z,50.55
2018-07-19T23:46:06.820Z,49.59
2018-07-19T23:49:08.885Z,49.36
2018-07-19T23:52:10.957Z,50.82
2018-07-19T23:55:13.018Z,50.11
2018-07-19T23:58:15.148Z,50.56
